Time;durP1;ratioP1;P1;durP2;ratioP2;P2;SDS_P1;SDS_P2;PMS_P1;PMS_P2;Temp;Humidity;BMP_temperature;BMP_pressure;BME280_temperature;BME280_humidity;BME280_pressure;Samples;Min_cycle;Max_cycle;Signal;HPM_P1;HPM_P2
2023/05/07 00:01:46;;;;;;;10.65;8.70;;;;;;;13.66;100.00;101597.75;4971635;28;20023;-91
2023/05/07 00:04:13;;;;;;;9.20;8.18;;;;;;;13.65;100.00;101603.00;4969972;28;20030;-91
2023/05/07 00:06:38;;;;;;;11.65;8.95;;;;;;;13.67;100.00;101606.44;4970500;28;20142;-91
2023/05/07 00:09:04;;;;;;;10.95;8.63;;;;;;;13.67;100.00;101602.06;4969653;28;20113;-91
2023/05/07 00:11:30;;;;;;;12.60;8.85;;;;;;;13.68;100.00;101603.78;4977858;28;20381;-91
2023/05/07 00:13:55;;;;;;;9.23;8.18;;;;;;;13.70;100.00;101604.63;4969682;28;20124;-91
2023/05/07 00:16:21;;;;;;;10.32;8.68;;;;;;;13.70;100.00;101596.81;4972963;28;20030;-91
2023/05/07 00:18:46;;;;;;;15.15;9.18;;;;;;;13.69;100.00;101597.69;4969177;28;20052;-91
2023/05/07 00:21:11;;;;;;;9.50;8.38;;;;;;;13.67;100.00;101601.22;4972081;28;21029;-92
2023/05/07 00:23:37;;;;;;;11.07;9.15;;;;;;;13.68;100.00;101595.97;4968081;28;20038;-91
2023/05/07 00:26:03;;;;;;;11.80;8.77;;;;;;;13.68;100.00;101592.50;4972486;28;20034;-91
2023/05/07 00:28:28;;;;;;;10.40;9.02;;;;;;;13.69;100.00;101583.81;4987945;28;20419;-91
2023/05/07 00:30:54;;;;;;;11.48;9.15;;;;;;;13.68;100.00;101582.94;4967654;28;20518;-91
2023/05/07 00:33:20;;;;;;;10.15;8.98;;;;;;;13.64;100.00;101585.69;4970182;28;20149;-91
2023/05/07 00:35:46;;;;;;;11.88;9.32;;;;;;;13.68;100.00;101582.09;4969582;28;20038;-91
2023/05/07 00:38:11;;;;;;;13.40;9.35;;;;;;;13.63;100.00;101582.22;4972811;28;20177;-91
2023/05/07 00:40:37;;;;;;;11.57;9.07;;;;;;;13.64;100.00;101573.50;4967510;28;20027;-90
2023/05/07 00:43:02;;;;;;;12.05;10.13;;;;;;;13.66;100.00;101579.50;4971712;28;20408;-91
2023/05/07 00:45:28;;;;;;;13.70;10.15;;;;;;;13.67;100.00;101575.16;4969440;28;20037;-91
2023/05/07 00:47:59;;;;;;;10.93;8.75;;;;;;;13.62;100.00;101575.28;4969455;28;20058;-91
2023/05/07 00:50:25;;;;;;;12.52;9.90;;;;;;;13.63;100.00;101574.41;4970221;28;20102;-91
2023/05/07 00:52:51;;;;;;;12.18;9.98;;;;;;;13.62;100.00;101574.44;4968447;28;20042;-91
2023/05/07 00:55:17;;;;;;;13.68;9.93;;;;;;;13.58;100.00;101570.19;4970884;28;20033;-91
2023/05/07 00:57:42;;;;;;;11.30;9.65;;;;;;;13.60;100.00;101576.22;4973603;28;20034;-91
2023/05/07 01:00:09;;;;;;;12.15;9.80;;;;;;;13.56;100.00;101572.84;4969318;28;20019;-91
2023/05/07 01:02:35;;;;;;;12.73;10.07;;;;;;;13.56;100.00;101561.56;4970070;28;20026;-91
2023/05/07 01:05:04;;;;;;;12.77;10.13;;;;;;;13.55;100.00;101572.88;4973061;28;20137;-91
2023/05/07 01:07:30;;;;;;;15.25;11.45;;;;;;;13.54;100.00;101571.16;4974400;28;20025;-91
2023/05/07 01:09:56;;;;;;;13.27;10.93;;;;;;;13.54;100.00;101571.16;4972580;28;20035;-91
2023/05/07 01:12:23;;;;;;;12.68;10.52;;;;;;;13.52;100.00;101568.56;4974076;28;20098;-91
2023/05/07 01:14:49;;;;;;;14.88;10.40;;;;;;;13.52;100.00;101562.50;4972212;28;20031;-92
2023/05/07 01:17:15;;;;;;;15.02;10.55;;;;;;;13.53;100.00;101569.44;4973441;28;20030;-91
2023/05/07 01:19:41;;;;;;;15.40;10.95;;;;;;;13.49;100.00;101558.25;4974108;28;20022;-91
2023/05/07 01:22:11;;;;;;;13.95;10.85;;;;;;;13.54;100.00;101568.53;4981200;28;20025;-91
2023/05/07 01:24:37;;;;;;;13.88;10.95;;;;;;;13.56;100.00;101562.41;4980141;28;20471;-91
2023/05/07 01:27:02;;;;;;;14.00;11.13;;;;;;;13.55;100.00;101565.06;4973202;28;20034;-91
2023/05/07 01:29:28;;;;;;;13.82;10.68;;;;;;;13.54;100.00;101564.19;4971514;28;20073;-92
2023/05/07 01:31:55;;;;;;;15.13;11.45;;;;;;;13.55;100.00;101562.44;4974414;28;20399;-91
2023/05/07 01:34:22;;;;;;;13.88;11.25;;;;;;;13.58;100.00;101565.00;4971857;28;20037;-92
2023/05/07 01:36:48;;;;;;;15.82;11.48;;;;;;;13.59;100.00;101562.31;4972868;28;20030;-91
2023/05/07 01:39:15;;;;;;;15.93;11.75;;;;;;;13.59;100.00;101551.91;4969236;28;20262;-91
2023/05/07 01:41:42;;;;;;;15.93;11.98;;;;;;;13.61;100.00;101551.88;4973951;28;20026;-92
2023/05/07 01:44:10;;;;;;;17.98;11.55;;;;;;;13.57;100.00;101543.28;4971437;28;20640;-91
2023/05/07 01:46:35;;;;;;;16.52;11.90;;;;;;;13.59;100.00;101544.09;4980182;28;20228;-91
2023/05/07 01:49:00;;;;;;;14.20;11.75;;;;;;;13.58;100.00;101539.78;4970132;28;20424;-91
2023/05/07 01:51:26;;;;;;;17.77;12.45;;;;;;;13.60;100.00;101540.59;4972622;28;20062;-91
2023/05/07 01:53:53;;;;;;;16.67;12.45;;;;;;;13.62;100.00;101543.16;4972566;28;20034;-92
2023/05/07 01:56:19;;;;;;;19.15;13.05;;;;;;;13.63;100.00;101540.53;4972008;28;20430;-91
2023/05/07 01:58:46;;;;;;;19.33;13.40;;;;;;;13.58;100.00;101537.16;4971703;28;20062;-91
2023/05/07 02:01:12;;;;;;;21.23;13.88;;;;;;;13.62;100.00;101541.41;4971545;28;20491;-91
2023/05/07 02:03:37;;;;;;;18.85;13.98;;;;;;;13.61;100.00;101537.09;4975262;28;20100;-91
2023/05/07 02:06:03;;;;;;;16.63;12.70;;;;;;;13.59;100.00;101541.47;4983044;28;20034;-91
2023/05/07 02:08:28;;;;;;;16.25;12.57;;;;;;;13.61;100.00;101538.84;4983149;28;20297;-91
2023/05/07 02:10:53;;;;;;;17.27;13.50;;;;;;;13.58;100.00;101546.75;4972143;28;20039;-91
2023/05/07 02:13:19;;;;;;;19.17;14.50;;;;;;;13.61;100.00;101544.06;4980082;28;20041;-91
2023/05/07 02:15:49;;;;;;;18.58;14.50;;;;;;;13.58;100.00;101542.38;4970977;28;21031;-91
2023/05/07 02:18:15;;;;;;;20.80;15.27;;;;;;;13.55;100.00;101536.41;4975248;28;20126;-91
2023/05/07 02:20:41;;;;;;;19.58;14.52;;;;;;;13.53;100.00;101530.38;4975332;28;20483;-92
2023/05/07 02:23:06;;;;;;;20.92;14.27;;;;;;;13.55;100.00;101529.44;4973647;28;20046;-91
2023/05/07 02:25:32;;;;;;;18.35;13.40;;;;;;;13.54;100.00;101537.28;4969405;28;20395;-92
2023/05/07 02:27:57;;;;;;;19.30;14.65;;;;;;;13.58;100.00;101536.34;4979856;28;20022;-91
2023/05/07 02:30:23;;;;;;;21.25;15.05;;;;;;;13.55;100.00;101531.19;4972167;28;20512;-91
2023/05/07 02:32:48;;;;;;;19.88;15.15;;;;;;;13.52;100.00;101532.09;4973995;28;20089;-91
2023/05/07 02:35:14;;;;;;;20.48;14.65;;;;;;;13.50;100.00;101543.47;4971491;28;20031;-91
2023/05/07 02:37:39;;;;;;;22.60;15.60;;;;;;;13.49;100.00;101531.34;4969880;28;20027;-91
2023/05/07 02:40:05;;;;;;;19.58;14.60;;;;;;;13.48;100.00;101540.91;4970428;28;20030;-91
2023/05/07 02:42:31;;;;;;;21.05;15.98;;;;;;;13.53;100.00;101541.63;4974082;28;20049;-91
2023/05/07 02:44:56;;;;;;;20.52;16.13;;;;;;;13.51;100.00;101546.03;4972146;28;20034;-91
2023/05/07 02:47:22;;;;;;;22.05;16.05;;;;;;;13.48;100.00;101543.50;4972971;28;20030;-91
2023/05/07 02:49:47;;;;;;;22.15;16.48;;;;;;;13.51;100.00;101538.22;4972253;28;20031;-91
2023/05/07 02:52:13;;;;;;;22.15;16.17;;;;;;;13.50;100.00;101544.34;4972453;28;20465;-91
2023/05/07 02:54:38;;;;;;;24.35;17.10;;;;;;;13.49;100.00;101545.22;4971392;28;20507;-91
2023/05/07 02:57:03;;;;;;;22.92;17.45;;;;;;;13.47;100.00;101544.41;4975066;28;20468;-91
2023/05/07 02:59:29;;;;;;;22.00;16.60;;;;;;;13.47;100.00;101533.13;4970757;28;20157;-91
2023/05/07 03:01:54;;;;;;;21.95;16.75;;;;;;;13.47;100.00;101543.53;4971418;28;20038;-92
2023/05/07 03:04:20;;;;;;;22.42;16.77;;;;;;;13.48;100.00;101543.50;4973761;28;20033;-90
2023/05/07 03:06:45;;;;;;;22.83;18.23;;;;;;;13.46;100.00;101537.47;4971595;28;20023;-91
2023/05/07 03:09:10;;;;;;;23.05;16.60;;;;;;;13.47;100.00;101547.00;4971228;28;20037;-91
2023/05/07 03:11:36;;;;;;;23.38;16.63;;;;;;;13.45;100.00;101546.19;4972642;28;20558;-91
2023/05/07 03:14:02;;;;;;;21.83;17.13;;;;;;;13.44;100.00;101540.09;4972186;28;20034;-91
2023/05/07 03:16:27;;;;;;;22.83;17.15;;;;;;;13.45;100.00;101541.81;4969402;28;20077;-91
2023/05/07 03:18:53;;;;;;;22.88;17.48;;;;;;;13.44;100.00;101537.50;4972677;28;20031;-90
2023/05/07 03:21:18;;;;;;;23.27;17.98;;;;;;;13.42;100.00;101534.09;4971497;28;20046;-91
2023/05/07 03:23:43;;;;;;;22.45;17.27;;;;;;;13.43;100.00;101540.16;4971040;28;20038;-91
2023/05/07 03:26:09;;;;;;;23.58;17.60;;;;;;;13.47;100.00;101540.94;4972427;28;20035;-90
2023/05/07 03:28:34;;;;;;;25.88;18.10;;;;;;;13.46;100.00;101537.47;4971283;28;20460;-91
2023/05/07 03:31:00;;;;;;;23.90;17.15;;;;;;;13.44;100.00;101536.69;4970311;28;20035;-91
2023/05/07 03:33:28;;;;;;;22.23;17.05;;;;;;;13.46;100.00;101537.47;4974282;28;20022;-91
2023/05/07 03:35:54;;;;;;;22.23;17.63;;;;;;;13.44;100.00;101528.88;4970771;28;20042;-92
2023/05/07 03:38:19;;;;;;;24.08;17.48;;;;;;;13.43;100.00;101528.00;4968338;28;20034;-90
2023/05/07 03:40:44;;;;;;;23.33;17.40;;;;;;;13.44;100.00;101534.91;4972306;28;20030;-91
2023/05/07 03:43:10;;;;;;;23.90;17.10;;;;;;;13.44;100.00;101534.06;4973944;28;20030;-91
2023/05/07 03:45:35;;;;;;;23.67;18.20;;;;;;;13.44;100.00;101532.28;4972574;28;20039;-91
2023/05/07 03:48:01;;;;;;;25.35;18.88;;;;;;;13.39;100.00;101526.34;4970671;28;20502;-91
2023/05/07 03:50:26;;;;;;;23.05;17.92;;;;;;;13.43;100.00;101532.34;4972313;28;20049;-91
2023/05/07 03:52:51;;;;;;;25.17;18.25;;;;;;;13.43;100.00;101525.41;4971745;28;20539;-90
2023/05/07 03:55:16;;;;;;;25.47;17.87;;;;;;;13.42;100.00;101535.84;4970331;28;20045;-91
2023/05/07 03:57:42;;;;;;;23.83;18.15;;;;;;;13.39;100.00;101530.69;4967983;28;20313;-91
2023/05/07 04:00:08;;;;;;;25.60;18.77;;;;;;;13.39;100.00;101528.94;4970070;28;20041;-91
2023/05/07 04:02:33;;;;;;;24.33;17.63;;;;;;;13.40;100.00;101540.22;4969382;28;20022;-90
2023/05/07 04:04:59;;;;;;;25.35;19.55;;;;;;;13.40;100.00;101537.63;4970692;28;20046;-91
2023/05/07 04:07:24;;;;;;;25.20;19.27;;;;;;;13.39;100.00;101549.78;4970448;28;20026;-91
2023/05/07 04:09:49;;;;;;;24.15;18.52;;;;;;;13.41;100.00;101550.63;4970738;28;20088;-91
2023/05/07 04:12:15;;;;;;;23.13;17.92;;;;;;;13.40;100.00;101556.72;4970661;28;20479;-91
2023/05/07 04:14:40;;;;;;;29.30;20.13;;;;;;;13.42;100.00;101554.94;4970664;28;20158;-90
2023/05/07 04:17:06;;;;;;;27.35;18.38;;;;;;;13.40;100.00;101554.09;4969990;28;20577;-91
2023/05/07 04:19:33;;;;;;;26.40;19.63;;;;;;;13.42;100.00;101560.16;4970575;28;20030;-91
2023/05/07 04:21:59;;;;;;;28.30;19.75;;;;;;;13.47;100.00;101559.16;4971947;28;20410;-92
2023/05/07 04:24:24;;;;;;;27.73;20.42;;;;;;;13.47;100.00;101553.97;4970882;28;20483;-91
2023/05/07 04:26:51;;;;;;;28.63;21.25;;;;;;;13.48;100.00;101560.88;4969353;28;20115;-90
2023/05/07 04:29:16;;;;;;;26.95;20.02;;;;;;;13.48;100.00;101561.75;4968455;28;20050;-91
2023/05/07 04:31:44;;;;;;;30.27;22.30;;;;;;;13.52;100.00;101557.28;4971913;28;20101;-91
2023/05/07 04:34:10;;;;;;;30.17;22.40;;;;;;;13.55;100.00;101562.44;4972121;28;20064;-91
2023/05/07 04:36:36;;;;;;;28.38;21.60;;;;;;;13.53;100.00;101559.00;4969800;28;20034;-91
2023/05/07 04:39:02;;;;;;;31.90;22.20;;;;;;;13.48;100.00;101542.66;4971865;28;20395;-91
2023/05/07 04:41:28;;;;;;;30.80;22.67;;;;;;;13.55;100.00;101552.03;4975625;28;20030;-91
2023/05/07 04:43:53;;;;;;;30.98;21.95;;;;;;;13.58;100.00;101549.38;4979164;28;20588;-90
2023/05/07 04:46:18;;;;;;;35.55;23.70;;;;;;;13.59;100.00;101559.72;4984570;28;20031;-90
2023/05/07 04:48:44;;;;;;;34.55;24.25;;;;;;;13.60;100.00;101564.03;4980762;28;20065;-91
2023/05/07 04:51:09;;;;;;;35.30;23.83;;;;;;;13.54;100.00;101553.78;4972412;28;20192;-91
2023/05/07 04:53:34;;;;;;;36.10;24.57;;;;;;;13.61;100.00;101567.50;4975220;28;20077;-90
2023/05/07 04:56:00;;;;;;;33.60;23.85;;;;;;;13.63;100.00;101560.50;4972538;28;20290;-90
2023/05/07 04:58:25;;;;;;;35.15;24.63;;;;;;;13.69;100.00;101569.03;4974724;28;20070;-90
2023/05/07 05:00:50;;;;;;;37.35;25.58;;;;;;;13.70;100.00;101565.53;4975352;28;20038;-90
2023/05/07 05:03:16;;;;;;;35.58;26.23;;;;;;;13.74;100.00;101567.16;4981520;28;20106;-91
2023/05/07 05:05:41;;;;;;;40.42;27.35;;;;;;;13.74;100.00;101559.34;4974231;28;20030;-91
2023/05/07 05:08:07;;;;;;;39.42;27.45;;;;;;;13.78;100.00;101566.19;4974470;28;20419;-91
2023/05/07 05:10:32;;;;;;;40.08;28.35;;;;;;;13.84;100.00;101567.78;4976519;28;20510;-91
2023/05/07 05:12:57;;;;;;;41.72;28.45;;;;;;;13.88;100.00;101569.41;4972344;28;20534;-90
2023/05/07 05:15:23;;;;;;;43.58;29.17;;;;;;;13.90;100.00;101572.00;4973498;28;20478;-91
2023/05/07 05:17:48;;;;;;;41.67;29.30;;;;;;;13.88;100.00;101577.22;4973126;28;20049;-90
2023/05/07 05:20:14;;;;;;;47.65;31.13;;;;;;;13.91;100.00;101571.97;4973532;28;20041;-91
2023/05/07 05:22:41;;;;;;;41.92;29.50;;;;;;;13.98;100.00;101581.34;4975374;28;20117;-90
2023/05/07 05:25:07;;;;;;;48.80;31.98;;;;;;;14.02;100.00;101576.88;4974123;28;20905;-91
2023/05/07 05:27:33;;;;;;;46.30;30.40;;;;;;;14.04;100.00;101578.56;4972771;28;20157;-91
2023/05/07 05:29:58;;;;;;;46.88;30.65;;;;;;;14.09;100.00;101586.25;4973879;28;20125;-90
2023/05/07 05:32:23;;;;;;;51.88;34.05;;;;;;;14.12;100.00;101587.03;4971610;28;20032;-91
2023/05/07 05:34:48;;;;;;;47.80;32.83;;;;;;;14.17;100.00;101585.16;4974766;28;20018;-90
2023/05/07 05:37:14;;;;;;;44.70;31.23;;;;;;;14.24;100.00;101594.53;4974337;28;20026;-91
2023/05/07 05:39:39;;;;;;;49.78;33.55;;;;;;;14.28;100.00;101603.13;4970952;28;20857;-92
2023/05/07 05:42:05;;;;;;;47.38;33.53;;;;;;;14.34;100.00;101597.72;4969821;28;20037;-91
2023/05/07 05:44:30;;;;;;;51.42;34.75;;;;;;;14.42;100.00;101597.56;4973278;28;20030;-91
2023/05/07 05:46:57;;;;;;;48.50;34.42;;;;;;;14.51;100.00;101599.91;4971917;28;20450;-90
2023/05/07 05:49:23;;;;;;;49.72;33.58;;;;;;;14.56;100.00;101598.88;4970173;28;20113;-91
2023/05/07 05:51:48;;;;;;;47.35;33.20;;;;;;;14.58;100.00;101593.63;4969353;28;20098;-90
2023/05/07 05:54:13;;;;;;;49.05;33.85;;;;;;;14.56;100.00;101596.28;4970092;28;20080;-91
2023/05/07 05:56:39;;;;;;;48.20;32.87;;;;;;;14.61;100.00;101601.38;4973593;28;20719;-90
2023/05/07 05:59:04;;;;;;;50.50;34.20;;;;;;;14.58;100.00;101594.50;4969658;28;20294;-91
2023/05/07 06:01:30;;;;;;;46.33;33.85;;;;;;;14.63;100.00;101596.97;4971105;28;20006;-91
2023/05/07 06:03:56;;;;;;;47.72;33.58;;;;;;;14.63;100.00;101596.97;4971184;28;20038;-90
2023/05/07 06:06:43;;;;;;;46.35;32.22;;;;;;;14.72;100.00;101599.31;4973194;28;20045;-94
2023/05/07 06:09:08;;;;;;;44.50;31.80;;;;;;;14.67;100.00;101588.13;4971977;28;20033;-91
2023/05/07 06:11:34;;;;;;;45.63;33.08;;;;;;;14.77;100.00;101591.34;4972402;28;20023;-91
2023/05/07 06:13:59;;;;;;;46.60;32.67;;;;;;;14.87;100.00;101598.88;4971203;28;20026;-91
2023/05/07 06:16:25;;;;;;;45.67;33.67;;;;;;;14.86;100.00;101599.78;4971612;28;20038;-91
2023/05/07 06:18:50;;;;;;;49.50;34.20;;;;;;;14.84;100.00;101585.91;4971670;28;20065;-91
2023/05/07 06:21:15;;;;;;;44.92;32.63;;;;;;;14.88;100.00;101591.88;4973069;28;20078;-92
2023/05/07 06:23:41;;;;;;;47.50;33.75;;;;;;;14.90;100.00;101588.34;4973363;28;20427;-91
2023/05/07 06:26:06;;;;;;;48.85;33.95;;;;;;;14.94;100.00;101589.94;4974232;28;20561;-91
2023/05/07 06:28:35;;;;;;;48.55;35.05;;;;;;;15.06;100.00;101599.19;4972327;28;20650;-91
2023/05/07 06:31:17;;;;;;;46.80;33.45;;;;;;;15.19;100.00;101610.09;4973205;28;20037;-91
2023/05/07 06:33:43;;;;;;;49.65;34.25;;;;;;;15.17;100.00;101604.06;4971757;28;20498;-92
2023/05/07 06:36:09;;;;;;;50.00;34.10;;;;;;;15.23;100.00;101607.34;4973334;28;20034;-91
2023/05/07 06:38:34;;;;;;;46.40;33.53;;;;;;;15.26;100.00;101602.03;4971880;28;20026;-86
2023/05/07 06:40:59;;;;;;;45.65;31.92;;;;;;;15.28;100.00;101600.25;4968219;28;20108;-86
2023/05/07 06:43:25;;;;;;;41.90;30.10;;;;;;;15.36;100.00;101608.69;4963696;28;20121;-86
2023/05/07 06:45:50;;;;;;;43.35;30.85;;;;;;;15.42;100.00;101610.28;4966318;28;20027;-86
2023/05/07 06:48:16;;;;;;;42.95;30.17;;;;;;;15.54;100.00;101615.13;4966511;28;20664;-86
2023/05/07 06:50:42;;;;;;;44.67;30.25;;;;;;;15.56;100.00;101615.09;4969953;28;20057;-86
2023/05/07 06:53:07;;;;;;;42.28;30.33;;;;;;;15.59;100.00;101607.13;4972029;28;20848;-87
2023/05/07 06:55:32;;;;;;;41.72;29.98;;;;;;;15.65;100.00;101622.63;4972796;28;20472;-86
2023/05/07 06:58:00;;;;;;;42.47;30.70;;;;;;;15.69;100.00;101621.63;4971273;28;20948;-86
2023/05/07 07:00:26;;;;;;;42.10;31.05;;;;;;;15.68;100.00;101618.16;4970650;28;20022;-86
2023/05/07 07:02:52;;;;;;;41.53;29.65;;;;;;;15.74;100.00;101625.81;4969246;28;20081;-86
2023/05/07 07:05:17;;;;;;;39.17;28.73;;;;;;;15.71;100.00;101617.19;4971611;28;20031;-86
2023/05/07 07:07:42;;;;;;;37.95;28.45;;;;;;;15.73;100.00;101629.31;4972625;28;20960;-86
2023/05/07 07:10:08;;;;;;;38.53;29.42;;;;;;;15.74;100.00;101623.19;4972057;28;20165;-92
2023/05/07 07:12:34;;;;;;;36.42;28.52;;;;;;;15.77;100.00;101624.81;4974477;28;20034;-93
2023/05/07 07:14:59;;;;;;;37.80;28.38;;;;;;;15.68;100.00;101612.06;4979944;28;21465;-93
2023/05/07 07:17:25;;;;;;;37.78;28.27;;;;;;;15.74;100.00;101604.03;4978894;28;20117;-92
2023/05/07 07:19:50;;;;;;;36.97;26.45;;;;;;;15.72;100.00;101608.44;4972805;28;20022;-91
2023/05/07 07:22:16;;;;;;;40.08;28.60;;;;;;;15.84;100.00;101626.34;4975321;28;20380;-90
2023/05/07 07:24:41;;;;;;;37.33;27.77;;;;;;;15.87;100.00;101626.25;4976708;28;20039;-92
2023/05/07 07:27:07;;;;;;;36.28;27.13;;;;;;;15.87;100.00;101620.16;4984271;28;20030;-92
2023/05/07 07:29:32;;;;;;;34.20;26.33;;;;;;;15.91;100.00;101622.63;4977201;28;20131;-93
2023/05/07 07:31:58;;;;;;;35.80;26.55;;;;;;;15.99;100.00;101635.44;4974540;28;20054;-92
2023/05/07 07:34:23;;;;;;;35.75;27.08;;;;;;;16.00;100.00;101639.75;4977962;28;20050;-92
2023/05/07 07:36:48;;;;;;;37.35;26.70;;;;;;;15.97;100.00;101634.63;4972455;28;20029;-93
2023/05/07 07:39:14;;;;;;;37.33;27.15;;;;;;;15.95;100.00;101623.38;4971395;28;20034;-86
2023/05/07 07:41:39;;;;;;;34.05;26.10;;;;;;;16.00;100.00;101626.69;4969279;28;20026;-86
2023/05/07 07:44:07;;;;;;;36.17;26.45;;;;;;;16.11;100.00;101640.25;4972384;28;20380;-86
2023/05/07 07:46:38;;;;;;;34.97;26.02;;;;;;;16.03;100.00;101624.00;4972130;28;20029;-86
2023/05/07 07:49:03;;;;;;;37.47;27.25;;;;;;;16.14;100.00;101629.69;4970780;28;20030;-86
2023/05/07 07:51:29;;;;;;;33.70;26.23;;;;;;;16.18;100.00;101631.28;4970474;28;20038;-86
2023/05/07 07:53:54;;;;;;;36.35;26.38;;;;;;;16.20;100.00;101626.88;4971067;28;20411;-85
2023/05/07 07:56:20;;;;;;;34.22;24.85;;;;;;;16.25;100.00;101634.53;4969394;28;20069;-86
2023/05/07 07:58:45;;;;;;;34.42;26.38;;;;;;;16.24;100.00;101638.91;4969024;28;20076;-86
2023/05/07 08:01:12;;;;;;;34.90;25.50;;;;;;;16.31;100.00;101657.91;4970543;28;20023;-86
2023/05/07 08:03:38;;;;;;;33.35;25.02;;;;;;;16.33;100.00;101643.84;4971929;28;20105;-86
2023/05/07 08:06:03;;;;;;;33.28;25.95;;;;;;;16.49;100.00;101657.25;4971235;28;20126;-85
2023/05/07 08:08:28;;;;;;;34.53;25.58;;;;;;;16.56;100.00;101633.44;4973338;28;20026;-85
2023/05/07 08:10:54;;;;;;;40.95;26.33;;;;;;;16.84;100.00;101654.28;4969812;28;20035;-85
2023/05/07 08:13:19;;;;;;;35.40;25.02;;;;;;;16.92;100.00;101649.56;4971014;28;20109;-85
2023/05/07 08:15:45;;;;;;;35.45;26.67;;;;;;;17.07;100.00;101648.16;4967751;28;20538;-85
2023/05/07 08:18:10;;;;;;;36.67;25.38;;;;;;;17.14;100.00;101648.78;4971597;28;20158;-86
2023/05/07 08:20:39;;;;;;;33.92;25.80;;;;;;;17.29;100.00;101653.44;4971500;28;20031;-86
2023/05/07 08:23:05;;;;;;;31.50;24.00;;;;;;;17.39;100.00;101649.56;4969356;28;20085;-86
2023/05/07 08:25:33;;;;;;;33.30;25.10;;;;;;;17.52;100.00;101652.56;4969183;28;20151;-85
2023/05/07 08:27:58;;;;;;;33.90;25.98;;;;;;;17.66;100.00;101659.00;4970751;28;20399;-86
2023/05/07 08:30:23;;;;;;;31.73;24.17;;;;;;;17.83;100.00;101665.31;4969783;28;20562;-86
2023/05/07 08:32:49;;;;;;;31.88;24.15;;;;;;;18.08;100.00;101666.03;4978101;28;20333;-86
2023/05/07 08:35:14;;;;;;;30.90;24.17;;;;;;;18.35;100.00;101659.63;4970848;28;20041;-86
2023/05/07 08:37:40;;;;;;;30.20;24.15;;;;;;;18.52;100.00;101662.34;4972403;28;20118;-85
2023/05/07 08:40:06;;;;;;;33.92;24.42;;;;;;;18.56;100.00;101655.22;4971303;28;20087;-85
2023/05/07 08:42:32;;;;;;;29.40;23.83;;;;;;;18.71;100.00;101669.44;4969394;28;20143;-85
2023/05/07 08:44:59;;;;;;;29.17;23.83;;;;;;;18.86;100.00;101666.13;4969345;28;20128;-85
2023/05/07 08:47:31;;;;;;;32.05;24.52;;;;;;;18.94;100.00;101662.25;4970569;28;20081;-86
2023/05/07 08:49:56;;;;;;;31.42;23.88;;;;;;;19.16;100.00;101666.53;4971114;28;20046;-93
2023/05/07 08:52:22;;;;;;;29.63;22.80;;;;;;;19.31;100.00;101664.03;4970061;28;20047;-93
2023/05/07 08:54:47;;;;;;;28.08;22.20;;;;;;;19.45;100.00;101668.63;4966926;28;20030;-92
2023/05/07 08:57:13;;;;;;;28.20;21.35;;;;;;;19.42;99.29;101671.41;4971068;28;20096;-93
2023/05/07 08:59:38;;;;;;;26.73;22.52;;;;;;;19.60;100.00;101677.59;4970114;28;20043;-92
2023/05/07 09:02:06;;;;;;;26.85;21.23;;;;;;;19.58;100.00;101674.22;4971746;28;20243;-94
2023/05/07 09:04:31;;;;;;;26.05;21.05;;;;;;;19.47;97.22;101679.97;4971577;28;20026;-93
2023/05/07 09:07:03;;;;;;;26.15;21.13;;;;;;;19.44;100.00;101672.22;4970034;28;20037;-93
2023/05/07 09:09:28;;;;;;;27.45;22.10;;;;;;;19.42;98.57;101687.19;4971424;28;20117;-93
2023/05/07 09:12:01;;;;;;;26.25;20.95;;;;;;;19.28;96.45;101687.00;4968834;28;20399;-93
2023/05/07 09:14:27;;;;;;;28.10;20.80;;;;;;;19.15;99.00;101675.34;4980078;28;20126;-93
2023/05/07 09:16:53;;;;;;;25.98;20.90;;;;;;;19.16;96.88;101679.69;4969992;28;20110;-93
2023/05/07 09:19:26;;;;;;;27.38;22.23;;;;;;;19.03;98.73;101670.66;4973047;28;20030;-92
2023/05/07 09:22:03;;;;;;;25.75;20.42;;;;;;;19.04;98.25;101673.19;4972533;28;20033;-92
2023/05/07 09:24:33;;;;;;;25.13;19.77;;;;;;;18.97;94.95;101650.72;4971503;28;20599;-95
2023/05/07 09:27:00;;;;;;;25.88;20.55;;;;;;;19.01;96.56;101667.22;4974140;28;20065;-93
2023/05/07 09:29:25;;;;;;;25.88;20.50;;;;;;;19.18;97.70;101676.03;4974008;28;20117;-92
2023/05/07 09:31:51;;;;;;;26.40;21.52;;;;;;;19.21;100.00;101656.66;4972759;28;20030;-92
2023/05/07 09:34:16;;;;;;;24.27;19.70;;;;;;;19.45;95.13;101670.44;4975078;28;20031;-93
2023/05/07 09:36:41;;;;;;;25.20;20.10;;;;;;;19.47;95.98;101658.06;4982692;28;20030;-93
2023/05/07 09:39:07;;;;;;;24.95;19.92;;;;;;;19.50;92.55;101674.56;4991620;28;20038;-94
2023/05/07 09:41:42;;;;;;;24.05;19.88;;;;;;;19.47;91.28;101664.19;4978469;28;20030;-94
2023/05/07 09:44:08;;;;;;;27.27;20.17;;;;;;;19.53;93.42;101669.16;4977085;28;20034;-94
2023/05/07 09:46:38;;;;;;;25.85;21.30;;;;;;;19.40;95.75;101659.25;4975604;28;20053;-94
2023/05/07 09:49:09;;;;;;;26.38;20.73;;;;;;;19.44;94.06;101669.56;4974694;28;20069;-94
2023/05/07 09:51:41;;;;;;;25.00;20.83;;;;;;;19.34;95.68;101673.56;4973556;28;20042;-94
2023/05/07 09:54:06;;;;;;;24.48;21.77;;;;;;;19.30;98.05;101656.22;4976836;28;20035;-94
2023/05/07 09:56:32;;;;;;;26.35;20.48;;;;;;;19.32;93.68;101656.97;4974704;28;20030;-95
2023/05/07 09:59:00;;;;;;;25.60;20.02;;;;;;;19.35;96.63;101656.84;4976469;28;20034;-94
2023/05/07 10:01:26;;;;;;;26.60;21.38;;;;;;;19.38;93.64;101659.31;4972739;28;20034;-93
2023/05/07 10:03:53;;;;;;;22.83;19.98;;;;;;;19.49;93.98;101672.88;4978257;28;20037;-94
2023/05/07 10:06:20;;;;;;;24.02;19.92;;;;;;;19.52;96.76;101656.06;4977753;28;20066;-95
2023/05/07 10:08:46;;;;;;;22.98;19.08;;;;;;;19.58;97.97;101654.00;4977218;28;20479;-95
2023/05/07 10:11:12;;;;;;;23.45;18.83;;;;;;;19.72;92.26;101675.22;4976165;28;20022;-94
2023/05/07 10:13:38;;;;;;;23.73;18.83;;;;;;;19.83;93.33;101665.97;4973600;28;20035;-95
2023/05/07 10:16:04;;;;;;;25.02;19.33;;;;;;;19.92;95.87;101676.06;4972651;28;20027;-93
2023/05/07 10:18:32;;;;;;;23.67;18.40;;;;;;;19.88;93.69;101656.06;4972652;28;20319;-95
2023/05/07 10:21:07;;;;;;;23.40;19.45;;;;;;;20.14;92.87;101681.94;4974820;28;20023;-94
2023/05/07 10:23:34;;;;;;;23.85;19.85;;;;;;;20.21;92.13;101672.81;4977576;28;20077;-94
2023/05/07 10:26:03;;;;;;;22.55;18.42;;;;;;;20.13;88.55;101661.81;4975023;28;20042;-94
2023/05/07 10:28:34;;;;;;;22.70;19.63;;;;;;;20.34;91.05;101676.56;4973164;28;20061;-94
2023/05/07 10:31:15;;;;;;;23.30;18.83;;;;;;;20.45;87.41;101679.50;4974655;28;20519;-94
2023/05/07 10:33:43;;;;;;;23.52;18.88;;;;;;;20.48;87.22;101660.03;4975309;28;20038;-95
2023/05/07 10:36:09;;;;;;;21.77;18.33;;;;;;;20.69;88.58;101673.88;4980895;28;20034;-94
2023/05/07 10:38:34;;;;;;;22.08;18.73;;;;;;;20.79;89.26;101673.31;4975384;28;20034;-87
2023/05/07 10:40:59;;;;;;;19.40;15.82;;;;;;;20.80;86.47;101663.63;4974121;28;20046;-85
2023/05/07 10:43:25;;;;;;;19.75;16.67;;;;;;;20.93;83.44;101677.00;4975023;28;20037;-85
2023/05/07 10:46:14;;;;;;;17.42;14.52;;;;;;;20.94;84.37;101682.22;4975872;28;20039;-85
2023/05/07 10:49:02;;;;;;;21.73;16.65;;;;;;;20.92;87.44;101676.16;4973755;28;20388;-85
2023/05/07 10:51:29;;;;;;;20.50;16.30;;;;;;;20.76;80.81;101673.47;4974916;28;20240;-85
2023/05/07 10:54:10;;;;;;;21.40;17.88;;;;;;;20.75;85.53;101670.91;4973225;28;20085;-85
2023/05/07 10:56:42;;;;;;;23.38;19.55;;;;;;;20.64;85.44;101673.28;4973709;28;20423;-85
2023/05/07 10:59:31;;;;;;;21.55;19.05;;;;;;;20.73;85.51;101672.81;4974512;28;20034;-85
2023/05/07 11:02:03;;;;;;;21.02;17.55;;;;;;;20.75;87.60;101670.91;4973071;28;20031;-85